Pagina principală
METAR-TAF:

METAR-TAF

Aeroporturi :

Gage, Oklahoma, Statele Unite ale Americii

Latitudine: 36-17-48N, longitudine: 099-46-08W, elevație: 677 m

Observații meteo curente

Raportul a fost făcut în urmă cu 19 de minute, la 22:53 UTC
Vânt 15 kt de la Nord-vest cu rafale de până la 28 kt
Temperatură 19°C
Umiditate 16%
Presiune 1018 hPa
Vizibilitate: 16.1 km
Cer senin

METAR: KGAG 232253Z AUTO 31015G28KT 10SM CLR 19/M07 A3007 RMK AO2 PK WND 32034/2212 SLP177 T01891072

Ora: 17:12 (23:12 UTC)


TAF: lipsă

Observații și prognoze meteo pentru peste 4.000 de aeroporturi (rapoarte METAR și TAF).

Stațiile disponibile sunt reprezentate pe hartă prin puncte galbene și roșii.

Țineți indicatorul mouse-ului pe punctul dorit pentru a vedea denumirea stației.

Apoi, faceți clic pentru a vedea observațiile și prognozele meteorologice.

Pentru a schimba harta: Pentru mărire, faceți clic pe butoanele verzi cu cruce neagră; pentru micșorare, pe butonul verde cu o liniuță; pentru hărți învecinate, pe săgețile verzi.


METAR-TAF: